Tor Futura — OZZE2 — position and weather

sailwx.info

Track history (hours):
 
Tides and Currents Weather Stations Pressure Air Temp Water Temp Dewpoint Dewpoint Depression Visibility Wind Speed Wind Dir Waves Ship Positions

Tor Futura

Last reported at 2017-Jul-22 10:29 UTC. Time now 2017-Jul-22 10:42 UTC.
Position N 55°42' E 012°36'.

Length 183.1 m; beam 25.2 m; draft 7.8 m.

Type: Ship. MMSI: 219927000.

Date/timePositionNaut miles runAvg speedWind from/ knotsBaromVisibWave heightAir tempDewpointWater temp
2017-Jul-22 10:29N 55°42' E 012°36'0 0.0
2017-Jul-22 09:59N 55°42' E 012°36'0 0.2
2017-Jul-22 09:30N 55°42' E 012°36'3 5.9
2017-Jul-22 09:00N 55°44' E 012°40'611.1
2017-Jul-22 08:30N 55°50' E 012°41'611.4
2017-Jul-22 08:00N 55°55' E 012°39'611.2
2017-Jul-22 07:30N 56°01' E 012°39'510.3
2017-Jul-22 07:00N 56°05' E 012°34'611.0
2017-Jul-22 06:30N 56°08' E 012°26'611.7
2017-Jul-22 06:00N 56°11' E 012°17'2413.6
2017-Jul-22 04:13N 56°08' E 011°33'313.5
2017-Jul-22 03:59N 56°08' E 011°28'612.8
2017-Jul-22 03:30N 56°07' E 011°17'812.6
2017-Jul-22 02:51N 56°02' E 011°06'514.3
2017-Jul-22 02:30N 55°58' E 011°01'714.4
2017-Jul-22 02:00N 55°52' E 010°53'713.9
2017-Jul-22 01:29N 55°47' E 010°43'713.2
2017-Jul-22 00:59N 55°45' E 010°32'713.9
2017-Jul-22 00:30N 55°43' E 010°21'713.9
2017-Jul-22 00:00N 55°41' E 010°09'2 0.2
2017-Jul-21 15:03N 55°40' E 010°06'114.2
2017-Jul-21 14:59N 55°40' E 010°08'714.5
2017-Jul-21 14:30N 55°43' E 010°20'714.2
2017-Jul-21 14:00N 55°45' E 010°32'714.0
2017-Jul-21 13:29N 55°47' E 010°44'714.7
2017-Jul-21 12:59N 55°53' E 010°53'714.7
2017-Jul-21 12:29N 55°59' E 011°01'814.8
2017-Jul-21 11:55N 56°06' E 011°08'614.4
2017-Jul-21 11:29N 56°08' E 011°19'2515.8
2017-Jul-21 09:54N 56°11' E 012°04'715.9
2017-Jul-21 09:28N 56°11' E 012°16'715.7
2017-Jul-21 09:00N 56°09' E 012°28'917.6
2017-Jul-21 08:31N 56°03' E 012°40'816.0
2017-Jul-21 08:01N 55°55' E 012°44'815.8
2017-Jul-21 07:30N 55°47' E 012°42'612.3
2017-Jul-21 07:00N 55°42' E 012°36'0 0.8
2017-Jul-21 06:29N 55°42' E 012°36'0 0.0
2017-Jul-21 05:59N 55°42' E 012°36'0 0.0
2017-Jul-21 05:29N 55°42' E 012°36'0 0.0
2017-Jul-21 05:00N 55°42' E 012°36'1 1.9
2017-Jul-21 04:30N 55°43' E 012°37'5 9.3
2017-Jul-21 04:01N 55°39' E 012°42'612.7
2017-Jul-21 03:30N 55°32' E 012°43'4 8.0
2017-Jul-21 03:00N 55°28' E 012°42'4 7.4
2017-Jul-21 02:30N 55°25' E 012°41'4 8.6
2017-Jul-21 02:00N 55°21' E 012°40'714.1
2017-Jul-21 01:31N 55°16' E 012°50'917.9
2017-Jul-21 01:01N 55°16' E 013°06'918.5
2017-Jul-21 00:31N 55°16' E 013°22'1018.3
2017-Jul-20 23:57N 55°15' E 013°40'818.5
2017-Jul-20 23:30N 55°15' E 013°54'918.4
2017-Jul-20 23:01N 55°14' E 014°10'816.6
2017-Jul-20 22:31N 55°19' E 014°22'917.9
2017-Jul-20 22:01N 55°25' E 014°34'917.8
2017-Jul-20 21:31N 55°27' E 014°49'918.3
2017-Jul-20 21:00N 55°28' E 015°05'918.3
2017-Jul-20 20:31N 55°28' E 015°21'918.2
2017-Jul-20 20:01N 55°29' E 015°37'918.1
2017-Jul-20 19:30N 55°29' E 015°53'918.1
2017-Jul-20 19:00N 55°30' E 016°09'918.2
2017-Jul-20 18:31N 55°30' E 016°25'918.3
2017-Jul-20 18:01N 55°30' E 016°41'918.2
2017-Jul-20 17:31N 55°31' E 016°57'918.2
2017-Jul-20 17:01N 55°31' E 017°13'918.1
2017-Jul-20 16:31N 55°32' E 017°29'918.2
2017-Jul-20 16:01N 55°33' E 017°45'918.1
2017-Jul-20 15:31N 55°34' E 018°01'917.9
2017-Jul-20 15:01N 55°35' E 018°17'1817.8
2017-Jul-20 14:01N 55°37' E 018°48'917.8
2017-Jul-20 13:31N 55°38' E 019°04'917.8
2017-Jul-20 13:01N 55°39' E 019°20'917.9
2017-Jul-20 12:30N 55°40' E 019°36'917.9
2017-Jul-20 12:01N 55°41' E 019°51'917.9
2017-Jul-20 11:31N 55°43' E 020°07'1917.7
2017-Jul-20 10:26N 55°44' E 020°41'16 3.2
2017-Jul-20 05:35N 55°41' E 021°08'0 0.0
2017-Jul-20 05:30N 55°41' E 021°08'0 0.0
2017-Jul-20 04:37N 55°41' E 021°08'0 0.1
2017-Jul-20 04:30N 55°41' E 021°08'0 0.0
2017-Jul-20 03:59N 55°41' E 021°08'0 0.0
2017-Jul-20 03:31N 55°41' E 021°08'0 0.0
2017-Jul-20 03:00N 55°41' E 021°08'0 0.0
2017-Jul-20 02:28N 55°41' E 021°08'0 0.0
2017-Jul-20 02:00N 55°41' E 021°08'0 0.0
2017-Jul-20 01:30N 55°41' E 021°08'0 0.1
2017-Jul-20 01:00N 55°41' E 021°08'3 5.7
2017-Jul-20 00:30N 55°44' E 021°06'3016.6
2017-Jul-19 22:41N 55°42' E 020°12'317.6
2017-Jul-19 22:30N 55°41' E 020°06'917.5
2017-Jul-19 22:01N 55°40' E 019°51'1517.3
2017-Jul-19 21:09N 55°38' E 019°25'217.1
2017-Jul-19 21:00N 55°38' E 019°20'917.3
2017-Jul-19 20:30N 55°37' E 019°05'917.4
2017-Jul-19 20:00N 55°36' E 018°50'917.5
2017-Jul-19 19:30N 55°36' E 018°35'917.6
2017-Jul-19 19:00N 55°35' E 018°19'917.7
2017-Jul-19 18:31N 55°34' E 018°04'917.6
2017-Jul-19 18:00N 55°33' E 017°48'917.5
2017-Jul-19 17:31N 55°32' E 017°33'917.5
2017-Jul-19 17:00N 55°31' E 017°18'917.3
2017-Jul-19 16:31N 55°30' E 017°02'917.2
2017-Jul-19 16:01N 55°29' E 016°47'917.2
2017-Jul-19 15:31N 55°29' E 016°32'917.2
2017-Jul-19 15:01N 55°28' E 016°17'917.2
2017-Jul-19 14:30N 55°27' E 016°02'918.0
2017-Jul-19 14:01N 55°26' E 015°46'918.4
2017-Jul-19 13:30N 55°25' E 015°30'918.0
2017-Jul-19 13:01N 55°25' E 015°14'917.9
2017-Jul-19 12:30N 55°24' E 014°58'917.9
2017-Jul-19 12:00N 55°23' E 014°43'917.4
2017-Jul-19 11:30N 55°17' E 014°31'917.6
2017-Jul-19 11:00N 55°11' E 014°20'917.7
2017-Jul-19 10:30N 55°11' E 014°04'917.8
2017-Jul-19 10:00N 55°11' E 013°49'917.5
2017-Jul-19 09:29N 55°12' E 013°33'917.6
2017-Jul-19 09:00N 55°12' E 013°18'917.5
2017-Jul-19 08:30N 55°13' E 013°03'917.3
2017-Jul-19 08:00N 55°15' E 012°48'714.2
2017-Jul-19 07:30N 55°20' E 012°38'815.8
2017-Jul-19 07:00N 55°27' E 012°41'713.9
2017-Jul-19 06:30N 55°34' E 012°42'510.5
2017-Jul-19 06:00N 55°39' E 012°41'4 7.8
2017-Jul-19 05:31N 55°42' E 012°36'0 0.9
2017-Jul-19 04:59N 55°42' E 012°36'0 0.0
2017-Jul-19 04:29N 55°42' E 012°36'0 0.0
2017-Jul-19 04:00N 55°42' E 012°36'1 1.4
2017-Jul-19 03:30N 55°43' E 012°37'611.3
2017-Jul-19 03:00N 55°47' E 012°42'714.1
2017-Jul-19 02:30N 55°54' E 012°39'815.3
2017-Jul-19 02:00N 56°02' E 012°39'714.3
2017-Jul-19 01:30N 56°07' E 012°30'815.1
2017-Jul-19 01:00N 56°11' E 012°19'815.3
2017-Jul-19 00:30N 56°11' E 012°05'2 0.1
2017-Jul-17 20:57N 56°12' E 012°09'614.2
2017-Jul-17 20:30N 56°12' E 012°20'713.8
2017-Jul-17 20:01N 56°08' E 012°31'714.0
2017-Jul-17 19:30N 56°03' E 012°39'713.4
2017-Jul-17 19:00N 55°57' E 012°43'713.8
2017-Jul-17 18:30N 55°50' E 012°44'713.5
2017-Jul-17 18:01N 55°44' E 012°39'2 4.4
2017-Jul-17 17:28N 55°42' E 012°36'0 0.0
2017-Jul-17 16:58N 55°42' E 012°36'0 0.0
2017-Jul-17 16:28N 55°42' E 012°36'0 0.0
2017-Jul-17 16:00N 55°42' E 012°36'1 2.7
2017-Jul-17 15:30N 55°43' E 012°38'510.9
2017-Jul-17 15:01N 55°38' E 012°42'611.4
2017-Jul-17 14:30N 55°32' E 012°43'713.3
2017-Jul-17 14:00N 55°26' E 012°41'713.4
2017-Jul-17 13:30N 55°19' E 012°41'714.3
2017-Jul-17 13:00N 55°16' E 012°52'714.6
2017-Jul-17 12:30N 55°16' E 013°05'714.7
2017-Jul-17 12:00N 55°15' E 013°18'714.9
2017-Jul-17 11:30N 55°15' E 013°31'915.0
2017-Jul-17 10:56N 55°15' E 013°46'615.0
2017-Jul-17 10:30N 55°14' E 013°58'715.0
2017-Jul-17 10:01N 55°14' E 014°10'714.0
2017-Jul-17 09:30N 55°17' E 014°22'815.1
2017-Jul-17 09:00N 55°23' E 014°30'714.8
2017-Jul-17 08:31N 55°27' E 014°41'815.1
2017-Jul-17 08:00N 55°27' E 014°55'815.0
2017-Jul-17 07:30N 55°27' E 015°08'815.3
2017-Jul-17 07:00N 55°28' E 015°21'815.5
2017-Jul-17 06:30N 55°28' E 015°35'815.5
2017-Jul-17 06:00N 55°29' E 015°49'815.4
2017-Jul-17 05:30N 55°29' E 016°02'815.5
2017-Jul-17 05:00N 55°29' E 016°16'815.4
2017-Jul-17 04:30N 55°30' E 016°29'815.2
2017-Jul-17 04:00N 55°30' E 016°43'15013.5
2017-Jul-16 16:52N 55°41' E 021°08'0 0.0
2017-Jul-16 16:31N 55°41' E 021°08'31 3.0
2017-Jul-16 06:18N 55°42' E 020°14'515.7
2017-Jul-16 05:57N 55°41' E 020°04'815.7
2017-Jul-16 05:28N 55°40' E 019°51'1315.7
2017-Jul-16 04:38N 55°39' E 019°28'215.8
2017-Jul-16 04:30N 55°39' E 019°24'815.7
2017-Jul-16 04:00N 55°38' E 019°10'1915.4
2017-Jul-16 02:47N 55°36' E 018°38'515.5
2017-Jul-16 02:28N 55°35' E 018°29'2015.8
2017-Jul-16 01:11N 55°33' E 017°54'315.9
2017-Jul-16 01:00N 55°33' E 017°48'815.9
2017-Jul-16 00:31N 55°32' E 017°35'815.6
2017-Jul-16 00:00N 55°31' E 017°21'815.5
2017-Jul-15 23:31N 55°30' E 017°07'815.5
2017-Jul-15 23:00N 55°30' E 016°53'815.6
2017-Jul-15 22:30N 55°29' E 016°40'815.7
2017-Jul-15 22:00N 55°28' E 016°26'815.7
2017-Jul-15 21:30N 55°28' E 016°12'815.8
2017-Jul-15 21:01N 55°27' E 015°58'815.7
2017-Jul-15 20:30N 55°26' E 015°45'816.0
2017-Jul-15 20:00N 55°25' E 015°31'816.1
2017-Jul-15 19:31N 55°24' E 015°16'815.8
2017-Jul-15 19:01N 55°24' E 015°03'815.7
2017-Jul-15 18:31N 55°23' E 014°49'714.9
2017-Jul-15 18:01N 55°21' E 014°36'816.4
2017-Jul-15 17:31N 55°15' E 014°26'815.4
2017-Jul-15 17:01N 55°11' E 014°14'815.9
2017-Jul-15 16:31N 55°11' E 014°00'816.2
2017-Jul-15 16:01N 55°12' E 013°46'816.1
2017-Jul-15 15:30N 55°13' E 013°32'816.0
2017-Jul-15 15:00N 55°14' E 013°18'1615.8
2017-Jul-15 14:01N 55°15' E 012°51'815.4
2017-Jul-15 13:30N 55°18' E 012°38'815.5
2017-Jul-15 13:01N 55°26' E 012°40'714.2
2017-Jul-15 12:30N 55°33' E 012°42'612.0
2017-Jul-15 12:00N 55°39' E 012°41'4 8.3
2017-Jul-15 11:30N 55°42' E 012°37'1 1.1
2017-Jul-15 11:00N 55°42' E 012°36'0 0.0
2017-Jul-15 10:28N 55°42' E 012°36'0 0.0
2017-Jul-15 09:58N 55°42' E 012°36'0 0.4
2017-Jul-15 09:31N 55°42' E 012°36'3 6.0
2017-Jul-15 09:01N 55°44' E 012°40'713.1
2017-Jul-15 08:31N 55°51' E 012°41'713.1
2017-Jul-15 08:01N 55°57' E 012°40'713.6
2017-Jul-15 07:30N 56°04' E 012°37'815.2
2017-Jul-15 07:00N 56°08' E 012°25'815.2
2017-Jul-15 06:30N 56°11' E 012°12'815.5
2017-Jul-15 05:59N 56°10' E 011°58'1015.5
2017-Jul-15 05:22N 56°09' E 011°41'3414.9
2017-Jul-15 03:05N 55°50' E 010°50'53 2.9
2017-Jul-14 08:55N 56°11' E 012°17'613.7
2017-Jul-14 08:30N 56°10' E 012°27'714.2
2017-Jul-14 08:00N 56°05' E 012°37'714.8
2017-Jul-14 07:30N 55°58' E 012°42'713.9
2017-Jul-14 07:00N 55°51' E 012°45'714.3
2017-Jul-14 06:30N 55°45' E 012°41'4 7.7
2017-Jul-14 06:00N 55°42' E 012°36'0 0.0
2017-Jul-14 05:29N 55°42' E 012°36'0 0.0
2017-Jul-14 05:00N 55°42' E 012°36'1 1.6
2017-Jul-14 04:30N 55°43' E 012°37'5 9.2
2017-Jul-14 04:00N 55°39' E 012°41'510.9
2017-Jul-14 03:30N 55°33' E 012°42'713.8
2017-Jul-14 03:00N 55°26' E 012°42'714.4
2017-Jul-14 02:31N 55°19' E 012°40'713.8
2017-Jul-14 02:00N 55°17' E 012°51'714.0
2017-Jul-14 01:30N 55°16' E 013°03'714.6
2017-Jul-14 01:00N 55°15' E 013°16'816.1
2017-Jul-14 00:29N 55°15' E 013°31'816.8
2017-Jul-14 00:00N 55°15' E 013°45'917.4
2017-Jul-13 23:31N 55°14' E 014°00'917.4
2017-Jul-13 23:01N 55°14' E 014°15'917.5
2017-Jul-13 22:31N 55°21' E 014°25'917.6
2017-Jul-13 22:01N 55°27' E 014°37'918.0
2017-Jul-13 21:31N 55°27' E 014°52'918.2
2017-Jul-13 21:00N 55°27' E 015°08'918.0
2017-Jul-13 20:30N 55°28' E 015°24'917.8
2017-Jul-13 20:00N 55°28' E 015°40'917.9
2017-Jul-13 19:30N 55°29' E 015°56'917.9
2017-Jul-13 19:00N 55°29' E 016°11'917.7
2017-Jul-13 18:30N 55°30' E 016°27'917.7
2017-Jul-13 18:00N 55°30' E 016°43'917.7
2017-Jul-13 17:30N 55°31' E 016°58'917.7
2017-Jul-13 17:00N 55°31' E 017°14'917.7
2017-Jul-13 16:30N 55°32' E 017°30'917.4
2017-Jul-13 15:59N 55°33' E 017°45'817.2
2017-Jul-13 15:30N 55°34' E 017°60'917.2
2017-Jul-13 15:00N 55°35' E 018°15'917.5
2017-Jul-13 14:30N 55°36' E 018°30'917.7
2017-Jul-13 14:00N 55°37' E 018°46'917.7
2017-Jul-13 13:30N 55°38' E 019°02'67 3.2
2017-Jul-12 16:39N 55°30' E 017°05'317.9
2017-Jul-12 16:29N 55°30' E 016°60'917.9
2017-Jul-12 16:00N 55°29' E 016°44'918.2
2017-Jul-12 15:30N 55°28' E 016°29'918.3
2017-Jul-12 15:01N 55°28' E 016°12'1818.4
2017-Jul-12 14:01N 55°26' E 015°40'918.6
2017-Jul-12 13:31N 55°25' E 015°24'918.0
2017-Jul-12 13:01N 55°24' E 015°08'917.8
2017-Jul-12 12:31N 55°23' E 014°52'917.3
2017-Jul-12 12:00N 55°21' E 014°37'918.2
2017-Jul-12 11:30N 55°15' E 014°26'917.3
2017-Jul-12 11:00N 55°11' E 014°12'918.1
2017-Jul-12 10:30N 55°11' E 013°57'  
Track history (hours):
 
Tides and Currents Weather Stations Pressure Air Temp Water Temp Dewpoint Dewpoint Depression Visibility Wind Speed Wind Dir Waves Ship Positions

Tor Futura

Last reported at 2017-Jul-22 10:29 UTC. Time now 2017-Jul-22 10:42 UTC.
Position N 55°42' E 012°36'.

Length 183.1 m; beam 25.2 m; draft 7.8 m.

Type: Ship. MMSI: 219927000.

Date/timePositionNaut miles runAvg speedWind from/ knotsBaromVisibWave heightAir tempDewpointWater temp
2017-Jul-22 10:29N 55°42' E 012°36'0 0.0
2017-Jul-22 09:59N 55°42' E 012°36'0 0.2
2017-Jul-22 09:30N 55°42' E 012°36'3 5.9
2017-Jul-22 09:00N 55°44' E 012°40'611.1
2017-Jul-22 08:30N 55°50' E 012°41'611.4
2017-Jul-22 08:00N 55°55' E 012°39'611.2
2017-Jul-22 07:30N 56°01' E 012°39'510.3
2017-Jul-22 07:00N 56°05' E 012°34'611.0
2017-Jul-22 06:30N 56°08' E 012°26'611.7
2017-Jul-22 06:00N 56°11' E 012°17'2413.6
2017-Jul-22 04:13N 56°08' E 011°33'313.5
2017-Jul-22 03:59N 56°08' E 011°28'612.8
2017-Jul-22 03:30N 56°07' E 011°17'812.6
2017-Jul-22 02:51N 56°02' E 011°06'514.3
2017-Jul-22 02:30N 55°58' E 011°01'714.4
2017-Jul-22 02:00N 55°52' E 010°53'713.9
2017-Jul-22 01:29N 55°47' E 010°43'713.2
2017-Jul-22 00:59N 55°45' E 010°32'713.9
2017-Jul-22 00:30N 55°43' E 010°21'713.9
2017-Jul-22 00:00N 55°41' E 010°09'2 0.2
2017-Jul-21 15:03N 55°40' E 010°06'114.2
2017-Jul-21 14:59N 55°40' E 010°08'714.5
2017-Jul-21 14:30N 55°43' E 010°20'714.2
2017-Jul-21 14:00N 55°45' E 010°32'714.0
2017-Jul-21 13:29N 55°47' E 010°44'714.7
2017-Jul-21 12:59N 55°53' E 010°53'714.7
2017-Jul-21 12:29N 55°59' E 011°01'814.8
2017-Jul-21 11:55N 56°06' E 011°08'614.4
2017-Jul-21 11:29N 56°08' E 011°19'2515.8
2017-Jul-21 09:54N 56°11' E 012°04'715.9
2017-Jul-21 09:28N 56°11' E 012°16'715.7
2017-Jul-21 09:00N 56°09' E 012°28'917.6
2017-Jul-21 08:31N 56°03' E 012°40'816.0
2017-Jul-21 08:01N 55°55' E 012°44'815.8
2017-Jul-21 07:30N 55°47' E 012°42'612.3
2017-Jul-21 07:00N 55°42' E 012°36'0 0.8
2017-Jul-21 06:29N 55°42' E 012°36'0 0.0
2017-Jul-21 05:59N 55°42' E 012°36'0 0.0
2017-Jul-21 05:29N 55°42' E 012°36'0 0.0
2017-Jul-21 05:00N 55°42' E 012°36'1 1.9
2017-Jul-21 04:30N 55°43' E 012°37'5 9.3
2017-Jul-21 04:01N 55°39' E 012°42'612.7
2017-Jul-21 03:30N 55°32' E 012°43'4 8.0
2017-Jul-21 03:00N 55°28' E 012°42'4 7.4
2017-Jul-21 02:30N 55°25' E 012°41'4 8.6
2017-Jul-21 02:00N 55°21' E 012°40'714.1
2017-Jul-21 01:31N 55°16' E 012°50'917.9
2017-Jul-21 01:01N 55°16' E 013°06'918.5
2017-Jul-21 00:31N 55°16' E 013°22'1018.3
2017-Jul-20 23:57N 55°15' E 013°40'818.5
2017-Jul-20 23:30N 55°15' E 013°54'918.4
2017-Jul-20 23:01N 55°14' E 014°10'816.6
2017-Jul-20 22:31N 55°19' E 014°22'917.9
2017-Jul-20 22:01N 55°25' E 014°34'917.8
2017-Jul-20 21:31N 55°27' E 014°49'918.3
2017-Jul-20 21:00N 55°28' E 015°05'918.3
2017-Jul-20 20:31N 55°28' E 015°21'918.2
2017-Jul-20 20:01N 55°29' E 015°37'918.1
2017-Jul-20 19:30N 55°29' E 015°53'918.1
2017-Jul-20 19:00N 55°30' E 016°09'918.2
2017-Jul-20 18:31N 55°30' E 016°25'918.3
2017-Jul-20 18:01N 55°30' E 016°41'918.2
2017-Jul-20 17:31N 55°31' E 016°57'918.2
2017-Jul-20 17:01N 55°31' E 017°13'918.1
2017-Jul-20 16:31N 55°32' E 017°29'918.2
2017-Jul-20 16:01N 55°33' E 017°45'918.1
2017-Jul-20 15:31N 55°34' E 018°01'917.9
2017-Jul-20 15:01N 55°35' E 018°17'1817.8
2017-Jul-20 14:01N 55°37' E 018°48'917.8
2017-Jul-20 13:31N 55°38' E 019°04'917.8
2017-Jul-20 13:01N 55°39' E 019°20'917.9
2017-Jul-20 12:30N 55°40' E 019°36'917.9
2017-Jul-20 12:01N 55°41' E 019°51'917.9
2017-Jul-20 11:31N 55°43' E 020°07'1917.7
2017-Jul-20 10:26N 55°44' E 020°41'16 3.2
2017-Jul-20 05:35N 55°41' E 021°08'0 0.0
2017-Jul-20 05:30N 55°41' E 021°08'0 0.0
2017-Jul-20 04:37N 55°41' E 021°08'0 0.1
2017-Jul-20 04:30N 55°41' E 021°08'0 0.0
2017-Jul-20 03:59N 55°41' E 021°08'0 0.0
2017-Jul-20 03:31N 55°41' E 021°08'0 0.0
2017-Jul-20 03:00N 55°41' E 021°08'0 0.0
2017-Jul-20 02:28N 55°41' E 021°08'0 0.0
2017-Jul-20 02:00N 55°41' E 021°08'0 0.0
2017-Jul-20 01:30N 55°41' E 021°08'0 0.1
2017-Jul-20 01:00N 55°41' E 021°08'3 5.7
2017-Jul-20 00:30N 55°44' E 021°06'3016.6
2017-Jul-19 22:41N 55°42' E 020°12'317.6
2017-Jul-19 22:30N 55°41' E 020°06'917.5
2017-Jul-19 22:01N 55°40' E 019°51'1517.3
2017-Jul-19 21:09N 55°38' E 019°25'217.1
2017-Jul-19 21:00N 55°38' E 019°20'917.3
2017-Jul-19 20:30N 55°37' E 019°05'917.4
2017-Jul-19 20:00N 55°36' E 018°50'917.5
2017-Jul-19 19:30N 55°36' E 018°35'917.6
2017-Jul-19 19:00N 55°35' E 018°19'917.7
2017-Jul-19 18:31N 55°34' E 018°04'917.6
2017-Jul-19 18:00N 55°33' E 017°48'917.5
2017-Jul-19 17:31N 55°32' E 017°33'917.5
2017-Jul-19 17:00N 55°31' E 017°18'917.3
2017-Jul-19 16:31N 55°30' E 017°02'917.2
2017-Jul-19 16:01N 55°29' E 016°47'917.2
2017-Jul-19 15:31N 55°29' E 016°32'917.2
2017-Jul-19 15:01N 55°28' E 016°17'917.2
2017-Jul-19 14:30N 55°27' E 016°02'918.0
2017-Jul-19 14:01N 55°26' E 015°46'918.4
2017-Jul-19 13:30N 55°25' E 015°30'918.0
2017-Jul-19 13:01N 55°25' E 015°14'917.9
2017-Jul-19 12:30N 55°24' E 014°58'917.9
2017-Jul-19 12:00N 55°23' E 014°43'917.4
2017-Jul-19 11:30N 55°17' E 014°31'917.6
2017-Jul-19 11:00N 55°11' E 014°20'917.7
2017-Jul-19 10:30N 55°11' E 014°04'917.8
2017-Jul-19 10:00N 55°11' E 013°49'917.5
2017-Jul-19 09:29N 55°12' E 013°33'917.6
2017-Jul-19 09:00N 55°12' E 013°18'917.5
2017-Jul-19 08:30N 55°13' E 013°03'917.3
2017-Jul-19 08:00N 55°15' E 012°48'714.2
2017-Jul-19 07:30N 55°20' E 012°38'815.8
2017-Jul-19 07:00N 55°27' E 012°41'713.9
2017-Jul-19 06:30N 55°34' E 012°42'510.5
2017-Jul-19 06:00N 55°39' E 012°41'4 7.8
2017-Jul-19 05:31N 55°42' E 012°36'0 0.9
2017-Jul-19 04:59N 55°42' E 012°36'0 0.0
2017-Jul-19 04:29N 55°42' E 012°36'0 0.0
2017-Jul-19 04:00N 55°42' E 012°36'1 1.4
2017-Jul-19 03:30N 55°43' E 012°37'611.3
2017-Jul-19 03:00N 55°47' E 012°42'714.1
2017-Jul-19 02:30N 55°54' E 012°39'815.3
2017-Jul-19 02:00N 56°02' E 012°39'714.3
2017-Jul-19 01:30N 56°07' E 012°30'815.1
2017-Jul-19 01:00N 56°11' E 012°19'815.3
2017-Jul-19 00:30N 56°11' E 012°05'2 0.1
2017-Jul-17 20:57N 56°12' E 012°09'614.2
2017-Jul-17 20:30N 56°12' E 012°20'713.8
2017-Jul-17 20:01N 56°08' E 012°31'714.0
2017-Jul-17 19:30N 56°03' E 012°39'713.4
2017-Jul-17 19:00N 55°57' E 012°43'713.8
2017-Jul-17 18:30N 55°50' E 012°44'713.5
2017-Jul-17 18:01N 55°44' E 012°39'2 4.4
2017-Jul-17 17:28N 55°42' E 012°36'0 0.0
2017-Jul-17 16:58N 55°42' E 012°36'0 0.0
2017-Jul-17 16:28N 55°42' E 012°36'0 0.0
2017-Jul-17 16:00N 55°42' E 012°36'1 2.7
2017-Jul-17 15:30N 55°43' E 012°38'510.9
2017-Jul-17 15:01N 55°38' E 012°42'611.4
2017-Jul-17 14:30N 55°32' E 012°43'713.3
2017-Jul-17 14:00N 55°26' E 012°41'713.4
2017-Jul-17 13:30N 55°19' E 012°41'714.3
2017-Jul-17 13:00N 55°16' E 012°52'714.6
2017-Jul-17 12:30N 55°16' E 013°05'714.7
2017-Jul-17 12:00N 55°15' E 013°18'714.9
2017-Jul-17 11:30N 55°15' E 013°31'915.0
2017-Jul-17 10:56N 55°15' E 013°46'615.0
2017-Jul-17 10:30N 55°14' E 013°58'715.0
2017-Jul-17 10:01N 55°14' E 014°10'714.0
2017-Jul-17 09:30N 55°17' E 014°22'815.1
2017-Jul-17 09:00N 55°23' E 014°30'714.8
2017-Jul-17 08:31N 55°27' E 014°41'815.1
2017-Jul-17 08:00N 55°27' E 014°55'815.0
2017-Jul-17 07:30N 55°27' E 015°08'815.3
2017-Jul-17 07:00N 55°28' E 015°21'815.5
2017-Jul-17 06:30N 55°28' E 015°35'815.5
2017-Jul-17 06:00N 55°29' E 015°49'815.4
2017-Jul-17 05:30N 55°29' E 016°02'815.5
2017-Jul-17 05:00N 55°29' E 016°16'815.4
2017-Jul-17 04:30N 55°30' E 016°29'815.2
2017-Jul-17 04:00N 55°30' E 016°43'15013.5
2017-Jul-16 16:52N 55°41' E 021°08'0 0.0
2017-Jul-16 16:31N 55°41' E 021°08'31 3.0
2017-Jul-16 06:18N 55°42' E 020°14'515.7
2017-Jul-16 05:57N 55°41' E 020°04'815.7
2017-Jul-16 05:28N 55°40' E 019°51'1315.7
2017-Jul-16 04:38N 55°39' E 019°28'215.8
2017-Jul-16 04:30N 55°39' E 019°24'815.7
2017-Jul-16 04:00N 55°38' E 019°10'1915.4
2017-Jul-16 02:47N 55°36' E 018°38'515.5
2017-Jul-16 02:28N 55°35' E 018°29'2015.8
2017-Jul-16 01:11N 55°33' E 017°54'315.9
2017-Jul-16 01:00N 55°33' E 017°48'815.9
2017-Jul-16 00:31N 55°32' E 017°35'815.6
2017-Jul-16 00:00N 55°31' E 017°21'815.5
2017-Jul-15 23:31N 55°30' E 017°07'815.5
2017-Jul-15 23:00N 55°30' E 016°53'815.6
2017-Jul-15 22:30N 55°29' E 016°40'815.7
2017-Jul-15 22:00N 55°28' E 016°26'815.7
2017-Jul-15 21:30N 55°28' E 016°12'815.8
2017-Jul-15 21:01N 55°27' E 015°58'815.7
2017-Jul-15 20:30N 55°26' E 015°45'816.0
2017-Jul-15 20:00N 55°25' E 015°31'816.1
2017-Jul-15 19:31N 55°24' E 015°16'815.8
2017-Jul-15 19:01N 55°24' E 015°03'815.7
2017-Jul-15 18:31N 55°23' E 014°49'714.9
2017-Jul-15 18:01N 55°21' E 014°36'816.4
2017-Jul-15 17:31N 55°15' E 014°26'815.4
2017-Jul-15 17:01N 55°11' E 014°14'815.9
2017-Jul-15 16:31N 55°11' E 014°00'816.2
2017-Jul-15 16:01N 55°12' E 013°46'816.1
2017-Jul-15 15:30N 55°13' E 013°32'816.0
2017-Jul-15 15:00N 55°14' E 013°18'1615.8
2017-Jul-15 14:01N 55°15' E 012°51'815.4
2017-Jul-15 13:30N 55°18' E 012°38'815.5
2017-Jul-15 13:01N 55°26' E 012°40'714.2
2017-Jul-15 12:30N 55°33' E 012°42'612.0
2017-Jul-15 12:00N 55°39' E 012°41'4 8.3
2017-Jul-15 11:30N 55°42' E 012°37'1 1.1
2017-Jul-15 11:00N 55°42' E 012°36'0 0.0
2017-Jul-15 10:28N 55°42' E 012°36'0 0.0
2017-Jul-15 09:58N 55°42' E 012°36'0 0.4
2017-Jul-15 09:31N 55°42' E 012°36'3 6.0
2017-Jul-15 09:01N 55°44' E 012°40'713.1
2017-Jul-15 08:31N 55°51' E 012°41'713.1
2017-Jul-15 08:01N 55°57' E 012°40'713.6
2017-Jul-15 07:30N 56°04' E 012°37'815.2
2017-Jul-15 07:00N 56°08' E 012°25'815.2
2017-Jul-15 06:30N 56°11' E 012°12'815.5
2017-Jul-15 05:59N 56°10' E 011°58'1015.5
2017-Jul-15 05:22N 56°09' E 011°41'3414.9
2017-Jul-15 03:05N 55°50' E 010°50'53 2.9
2017-Jul-14 08:55N 56°11' E 012°17'613.7
2017-Jul-14 08:30N 56°10' E 012°27'714.2
2017-Jul-14 08:00N 56°05' E 012°37'714.8
2017-Jul-14 07:30N 55°58' E 012°42'713.9
2017-Jul-14 07:00N 55°51' E 012°45'714.3
2017-Jul-14 06:30N 55°45' E 012°41'4 7.7
2017-Jul-14 06:00N 55°42' E 012°36'0 0.0
2017-Jul-14 05:29N 55°42' E 012°36'0 0.0
2017-Jul-14 05:00N 55°42' E 012°36'1 1.6
2017-Jul-14 04:30N 55°43' E 012°37'5 9.2
2017-Jul-14 04:00N 55°39' E 012°41'510.9
2017-Jul-14 03:30N 55°33' E 012°42'713.8
2017-Jul-14 03:00N 55°26' E 012°42'714.4
2017-Jul-14 02:31N 55°19' E 012°40'713.8
2017-Jul-14 02:00N 55°17' E 012°51'714.0
2017-Jul-14 01:30N 55°16' E 013°03'714.6
2017-Jul-14 01:00N 55°15' E 013°16'816.1
2017-Jul-14 00:29N 55°15' E 013°31'816.8
2017-Jul-14 00:00N 55°15' E 013°45'917.4
2017-Jul-13 23:31N 55°14' E 014°00'917.4
2017-Jul-13 23:01N 55°14' E 014°15'917.5
2017-Jul-13 22:31N 55°21' E 014°25'917.6
2017-Jul-13 22:01N 55°27' E 014°37'918.0
2017-Jul-13 21:31N 55°27' E 014°52'918.2
2017-Jul-13 21:00N 55°27' E 015°08'918.0
2017-Jul-13 20:30N 55°28' E 015°24'917.8
2017-Jul-13 20:00N 55°28' E 015°40'917.9
2017-Jul-13 19:30N 55°29' E 015°56'917.9
2017-Jul-13 19:00N 55°29' E 016°11'917.7
2017-Jul-13 18:30N 55°30' E 016°27'917.7
2017-Jul-13 18:00N 55°30' E 016°43'917.7
2017-Jul-13 17:30N 55°31' E 016°58'917.7
2017-Jul-13 17:00N 55°31' E 017°14'917.7
2017-Jul-13 16:30N 55°32' E 017°30'917.4
2017-Jul-13 15:59N 55°33' E 017°45'817.2
2017-Jul-13 15:30N 55°34' E 017°60'917.2
2017-Jul-13 15:00N 55°35' E 018°15'917.5
2017-Jul-13 14:30N 55°36' E 018°30'917.7
2017-Jul-13 14:00N 55°37' E 018°46'917.7
2017-Jul-13 13:30N 55°38' E 019°02'67 3.2
2017-Jul-12 16:39N 55°30' E 017°05'317.9
2017-Jul-12 16:29N 55°30' E 016°60'917.9
2017-Jul-12 16:00N 55°29' E 016°44'918.2
2017-Jul-12 15:30N 55°28' E 016°29'918.3
2017-Jul-12 15:01N 55°28' E 016°12'1818.4
2017-Jul-12 14:01N 55°26' E 015°40'918.6
2017-Jul-12 13:31N 55°25' E 015°24'918.0
2017-Jul-12 13:01N 55°24' E 015°08'917.8
2017-Jul-12 12:31N 55°23' E 014°52'917.3
2017-Jul-12 12:00N 55°21' E 014°37'918.2
2017-Jul-12 11:30N 55°15' E 014°26'917.3
2017-Jul-12 11:00N 55°11' E 014°12'918.1
2017-Jul-12 10:30N 55°11' E 013°57'  

Dump ship's entire track history